Time;durP1;ratioP1;P1;durP2;ratioP2;P2;SDS_P1;SDS_P2;PMS_P1;PMS_P2;Temp;Humidity;BMP_temperature;BMP_pressure;BME280_temperature;BME280_humidity;BME280_pressure;Samples;Min_cycle;Max_cycle;Signal;HPM_P1;HPM_P2
2022/01/04 00:01:50;;;;;;;59.83;35.07;;;;;;;6.91;59.90;95128.06;5009925;28;20616;-62
2022/01/04 00:04:17;;;;;;;51.40;30.20;;;;;;;6.92;60.49;95119.22;5009584;28;20443;-64
2022/01/04 00:06:45;;;;;;;54.67;30.83;;;;;;;6.97;60.31;95121.94;5010197;28;20559;-61
2022/01/04 00:09:13;;;;;;;58.47;30.02;;;;;;;7.13;59.85;95116.00;5008465;28;20201;-62
2022/01/04 00:14:10;;;;;;;59.30;34.13;;;;;;;6.97;59.75;95127.13;5009570;28;20210;-63
2022/01/04 00:16:38;;;;;;;65.70;35.53;;;;;;;6.99;59.15;95125.09;5009990;28;20261;-64
2022/01/04 00:19:05;;;;;;;59.70;34.63;;;;;;;7.22;58.51;95132.88;5009450;28;20433;-63
2022/01/04 00:21:33;;;;;;;60.07;34.30;;;;;;;7.19;58.80;95122.94;5009573;28;20520;-62
2022/01/04 00:24:00;;;;;;;59.37;34.23;;;;;;;7.17;58.43;95122.38;5008349;28;20892;-62
2022/01/04 00:26:27;;;;;;;57.87;34.00;;;;;;;6.98;58.21;95105.28;5009387;28;20451;-62
2022/01/04 00:28:54;;;;;;;57.83;34.23;;;;;;;6.93;58.56;95126.00;5009214;28;20519;-63
2022/01/04 00:31:21;;;;;;;59.47;34.38;;;;;;;6.94;58.60;95130.19;5009451;28;20474;-63
2022/01/04 00:33:49;;;;;;;60.77;33.53;;;;;;;7.22;57.95;95128.72;5007647;28;20209;-63
2022/01/04 00:36:17;;;;;;;55.00;32.70;;;;;;;7.22;57.88;95133.94;5009574;28;20453;-64
2022/01/04 00:38:44;;;;;;;53.78;31.52;;;;;;;7.08;58.30;95128.94;5008040;28;20213;-62
2022/01/04 00:41:11;;;;;;;55.03;32.57;;;;;;;7.15;57.85;95145.25;5008926;28;20746;-62
2022/01/04 00:43:38;;;;;;;55.67;30.97;;;;;;;6.95;58.39;95150.00;5008635;28;20459;-62
2022/01/04 00:46:05;;;;;;;54.83;33.17;;;;;;;7.11;58.30;95154.56;5009365;28;21002;-64
2022/01/04 00:50:59;;;;;;;56.22;33.67;;;;;;;6.92;58.73;95145.25;5007118;28;20244;-63
2022/01/04 00:53:25;;;;;;;56.05;33.42;;;;;;;6.77;58.71;95141.53;5006151;28;20568;-64
2022/01/04 00:55:53;;;;;;;59.67;35.77;;;;;;;6.45;60.18;95133.22;5007154;28;20720;-62
2022/01/04 00:58:20;;;;;;;61.78;33.97;;;;;;;6.36;60.30;95139.75;5021926;28;20440;-61
2022/01/04 01:00:47;;;;;;;58.28;33.15;;;;;;;6.60;59.57;95130.19;5009578;28;20674;-62
2022/01/04 01:03:14;;;;;;;56.90;32.70;;;;;;;6.47;59.72;95125.97;5008869;28;20243;-61
2022/01/04 01:05:41;;;;;;;59.00;33.72;;;;;;;6.47;59.41;95131.19;5009159;28;21006;-62
2022/01/04 01:08:08;;;;;;;62.17;33.72;;;;;;;5.82;61.39;95126.91;5008582;28;20695;-62
2022/01/04 01:10:44;;;;;;;59.65;35.90;;;;;;;5.51;62.28;95114.09;5009287;28;20213;-62
2022/01/04 01:13:13;;;;;;;55.78;34.22;;;;;;;5.41;63.25;95119.78;5006728;28;20246;-64
2022/01/04 01:15:44;;;;;;;55.00;33.70;;;;;;;5.79;61.50;95116.91;5007999;28;20197;-63
2022/01/04 01:18:15;;;;;;;52.83;32.97;;;;;;;6.03;61.11;95123.81;5008299;28;20209;-62
2022/01/04 01:20:45;;;;;;;50.33;31.27;;;;;;;6.15;60.11;95128.03;5008416;28;20252;-61
2022/01/04 01:23:11;;;;;;;54.67;32.08;;;;;;;6.23;60.05;95129.53;5008854;28;20232;-62
2022/01/04 01:25:38;;;;;;;48.58;31.90;;;;;;;6.15;60.23;95116.84;5009629;28;20304;-62
2022/01/04 01:28:05;;;;;;;51.42;31.75;;;;;;;6.09;60.17;95115.16;5006015;28;20194;-61
2022/01/04 01:30:36;;;;;;;51.38;31.02;;;;;;;5.93;60.46;95118.38;5008307;28;20643;-62
2022/01/04 01:33:03;;;;;;;51.30;30.92;;;;;;;6.02;60.65;95117.81;5007971;28;20595;-62
2022/01/04 01:35:31;;;;;;;49.15;30.02;;;;;;;6.17;60.56;95114.03;5008525;28;20820;-63
2022/01/04 01:37:58;;;;;;;49.47;30.73;;;;;;;6.13;60.66;95108.50;5008454;28;20214;-60
2022/01/04 01:40:26;;;;;;;49.90;30.48;;;;;;;6.22;59.98;95107.16;5009142;28;20277;-62
2022/01/04 01:42:53;;;;;;;49.38;30.10;;;;;;;6.06;60.07;95112.97;5006867;28;20317;-62
2022/01/04 01:45:22;;;;;;;50.55;31.83;;;;;;;6.02;60.47;95111.84;5023025;28;20197;-62
2022/01/04 01:47:50;;;;;;;53.03;32.30;;;;;;;6.21;60.30;95123.75;4988460;28;21028;-61
2022/01/04 01:50:19;;;;;;;54.05;32.03;;;;;;;6.29;59.95;95128.66;4989038;28;20268;-61
2022/01/04 01:52:49;;;;;;;58.78;33.40;;;;;;;6.25;59.78;95127.50;5016149;28;20204;-62
2022/01/04 01:55:18;;;;;;;62.30;37.88;;;;;;;6.22;59.54;95119.38;5012917;28;20210;-62
2022/01/04 01:57:46;;;;;;;62.22;38.35;;;;;;;6.01;60.15;95123.25;5006678;28;20204;-61
2022/01/04 02:00:15;;;;;;;61.47;35.88;;;;;;;5.97;60.81;95119.50;5022145;28;20205;-62
2022/01/04 02:02:42;;;;;;;49.10;31.17;;;;;;;6.01;60.31;95111.06;5007835;28;20237;-62
2022/01/04 02:05:09;;;;;;;50.65;30.42;;;;;;;6.07;60.08;95114.56;5011887;28;20280;-61
2022/01/04 02:07:39;;;;;;;47.97;30.15;;;;;;;6.01;60.10;95105.03;5011256;28;20588;-62
2022/01/04 02:10:07;;;;;;;48.20;28.55;;;;;;;6.19;60.19;95112.78;5011180;28;20190;-61
2022/01/04 02:12:40;;;;;;;40.40;24.13;;;;;;;5.56;61.56;95106.44;5011032;28;20205;-61
2022/01/04 02:15:11;;;;;;;38.47;23.05;;;;;;;4.81;64.26;95105.06;5024042;28;20205;-62
2022/01/04 02:17:38;;;;;;;45.45;30.52;;;;;;;4.98;63.36;95104.28;5031683;28;20255;-63
2022/01/04 02:20:06;;;;;;;62.13;45.55;;;;;;;4.99;63.35;95116.25;5032076;28;20328;-62
2022/01/04 02:22:34;;;;;;;48.55;33.75;;;;;;;5.02;63.33;95115.81;5011762;28;20253;-60
2022/01/04 02:25:02;;;;;;;38.00;25.35;;;;;;;5.27;63.61;95112.38;5011313;28;20197;-61
2022/01/04 02:27:33;;;;;;;43.45;29.98;;;;;;;5.34;62.82;95108.69;5011665;28;20212;-61
2022/01/04 02:30:01;;;;;;;41.92;26.80;;;;;;;5.18;63.09;95113.66;5009330;28;20707;-62
2022/01/04 02:32:28;;;;;;;47.47;29.85;;;;;;;5.26;62.79;95118.56;5011180;28;20193;-61
2022/01/04 02:34:55;;;;;;;39.13;25.65;;;;;;;4.90;64.10;95111.56;5011508;28;20216;-64
2022/01/04 02:37:24;;;;;;;39.40;24.90;;;;;;;4.34;65.65;95122.03;5011273;28;20699;-61
2022/01/04 02:39:52;;;;;;;36.35;23.88;;;;;;;4.25;65.79;95107.75;5011668;28;20197;-63
2022/01/04 02:42:20;;;;;;;37.95;23.67;;;;;;;4.61;64.88;95107.03;5011729;28;20214;-63
2022/01/04 02:44:47;;;;;;;41.78;24.75;;;;;;;5.07;63.71;95117.78;5009039;28;20221;-62
2022/01/04 02:47:15;;;;;;;36.22;22.48;;;;;;;4.42;65.90;95103.59;5011165;28;20241;-63
2022/01/04 02:49:43;;;;;;;33.03;21.83;;;;;;;4.43;65.53;95100.00;5010472;28;20297;-62
2022/01/04 02:52:09;;;;;;;35.78;21.05;;;;;;;4.71;64.74;95107.31;5008069;28;20759;-63
2022/01/04 02:54:37;;;;;;;30.77;19.45;;;;;;;4.88;64.09;95095.41;5010913;28;20851;-62
2022/01/04 02:57:05;;;;;;;30.40;19.60;;;;;;;4.86;64.01;95085.22;5011282;28;20193;-60
2022/01/04 02:59:32;;;;;;;30.73;19.67;;;;;;;5.07;63.47;95097.78;5017276;28;20201;-63
2022/01/04 03:01:59;;;;;;;31.55;19.80;;;;;;;5.18;62.60;95090.28;5018130;28;20542;-62
2022/01/04 03:04:27;;;;;;;29.98;19.67;;;;;;;5.21;62.79;95100.25;5010725;28;20633;-65
2022/01/04 03:06:54;;;;;;;28.33;18.35;;;;;;;5.42;62.20;95097.22;5011336;28;20649;-61
2022/01/04 03:09:21;;;;;;;28.80;17.98;;;;;;;5.51;62.05;95090.69;5011951;28;20202;-63
2022/01/04 03:11:48;;;;;;;32.67;17.63;;;;;;;5.60;62.21;95090.16;5012839;28;20580;-63
2022/01/04 03:14:15;;;;;;;28.15;18.75;;;;;;;5.53;61.35;95096.47;5013772;28;20296;-63
2022/01/04 03:16:42;;;;;;;28.42;18.73;;;;;;;5.51;61.30;95083.69;5020762;28;20202;-63
2022/01/04 03:19:10;;;;;;;27.80;16.92;;;;;;;5.37;62.07;95086.66;5010281;28;20236;-63
2022/01/04 03:21:42;;;;;;;27.27;16.40;;;;;;;4.81;62.73;95082.50;5009176;28;20201;-62
2022/01/04 03:24:11;;;;;;;30.55;16.85;;;;;;;4.50;64.37;95090.38;5009508;28;20232;-65
2022/01/04 03:26:39;;;;;;;26.48;15.50;;;;;;;4.85;64.15;95088.81;5010356;28;20729;-65
2022/01/04 03:29:08;;;;;;;25.42;15.82;;;;;;;4.86;63.66;95095.63;5009905;28;20237;-62
2022/01/04 03:31:35;;;;;;;27.20;15.32;;;;;;;4.76;63.92;95097.91;5010150;28;20206;-61
2022/01/04 03:34:04;;;;;;;25.65;15.18;;;;;;;5.00;63.31;95097.06;5010425;28;20202;-63
2022/01/04 03:36:31;;;;;;;22.65;14.93;;;;;;;5.10;62.63;95106.94;5010677;28;20212;-62
2022/01/04 03:38:59;;;;;;;26.95;15.07;;;;;;;5.33;61.65;95111.50;5010591;28;20194;-62
2022/01/04 03:41:27;;;;;;;25.42;15.63;;;;;;;5.22;61.73;95109.63;5010363;28;20198;-62
2022/01/04 03:43:54;;;;;;;24.55;16.70;;;;;;;5.31;61.96;95087.56;5010078;28;20252;-63
2022/01/04 03:46:23;;;;;;;27.98;17.15;;;;;;;5.49;61.26;95090.91;5009740;28;20245;-63
2022/01/04 03:48:50;;;;;;;27.20;16.63;;;;;;;5.51;61.74;95098.50;4989810;28;20201;-63
2022/01/04 03:51:17;;;;;;;26.40;16.13;;;;;;;5.32;61.15;95109.91;4990300;28;20575;-61
2022/01/04 03:53:44;;;;;;;25.58;16.40;;;;;;;5.04;61.80;95103.41;4987906;28;20198;-62
2022/01/04 03:56:11;;;;;;;25.60;15.32;;;;;;;5.04;61.78;95107.81;4990058;28;20199;-62
2022/01/04 03:58:40;;;;;;;27.15;17.40;;;;;;;5.01;61.45;95111.66;4989998;28;20201;-62
2022/01/04 04:01:07;;;;;;;39.80;23.58;;;;;;;5.02;61.17;95121.00;4990251;28;20190;-64
2022/01/04 04:03:35;;;;;;;47.63;26.95;;;;;;;4.87;61.48;95117.97;4990269;28;20634;-61
2022/01/04 04:06:02;;;;;;;58.70;32.50;;;;;;;4.82;60.99;95110.03;4990291;28;20218;-61
2022/01/04 04:08:29;;;;;;;77.65;39.35;;;;;;;4.58;61.94;95110.84;4989775;28;20643;-61
2022/01/04 04:10:56;;;;;;;89.22;47.85;;;;;;;4.62;61.25;95109.41;4990342;28;20199;-60
2022/01/04 04:13:23;;;;;;;92.20;49.13;;;;;;;4.60;61.84;95100.28;4989455;28;20269;-61
2022/01/04 04:15:50;;;;;;;83.70;46.88;;;;;;;4.51;62.21;95107.50;4988863;28;20202;-60
2022/01/04 04:18:18;;;;;;;81.90;45.80;;;;;;;4.54;62.14;95111.50;4990068;28;20241;-60
2022/01/04 04:20:46;;;;;;;77.97;43.78;;;;;;;4.68;61.73;95113.75;4990278;28;20231;-62
2022/01/04 04:23:13;;;;;;;76.90;42.97;;;;;;;4.25;63.51;95122.50;4986454;28;20305;-61
2022/01/04 04:25:40;;;;;;;75.07;42.08;;;;;;;4.51;62.90;95122.28;4989882;28;20214;-61
2022/01/04 04:28:07;;;;;;;72.00;41.42;;;;;;;4.55;62.23;95113.88;4988765;28;20210;-60
2022/01/04 04:30:35;;;;;;;75.07;40.63;;;;;;;4.48;62.30;95105.34;4988809;28;20221;-61
2022/01/04 04:33:03;;;;;;;72.95;41.40;;;;;;;4.55;61.94;95118.25;4988924;28;20377;-60
2022/01/04 04:35:31;;;;;;;76.05;41.22;;;;;;;4.58;61.53;95112.66;4989483;28;20202;-60
2022/01/04 04:38:02;;;;;;;89.80;45.08;;;;;;;4.55;61.80;95119.06;4989184;28;20202;-60
2022/01/04 04:40:29;;;;;;;97.68;53.20;;;;;;;4.51;61.73;95138.66;4989775;28;20678;-60
2022/01/04 04:42:56;;;;;;;91.53;50.05;;;;;;;4.42;61.88;95144.31;4988345;28;20226;-63
2022/01/04 04:45:23;;;;;;;87.40;47.90;;;;;;;4.35;62.15;95143.56;4986962;28;20287;-61
2022/01/04 04:47:50;;;;;;;76.47;42.85;;;;;;;4.45;62.07;95143.91;5000068;28;20291;-61
2022/01/04 04:50:17;;;;;;;69.28;40.15;;;;;;;4.36;62.50;95140.75;5009200;28;20202;-60
2022/01/04 04:52:45;;;;;;;68.38;40.00;;;;;;;4.42;62.36;95134.72;5005386;28;20224;-61
2022/01/04 04:55:12;;;;;;;67.28;38.15;;;;;;;4.36;62.70;95130.38;5009177;28;20279;-60
2022/01/04 04:57:40;;;;;;;61.40;33.05;;;;;;;4.30;63.01;95115.69;5008552;28;20201;-60
2022/01/04 05:00:09;;;;;;;56.70;32.78;;;;;;;4.16;63.95;95139.31;5004901;28;20202;-61
2022/01/04 05:02:37;;;;;;;55.40;30.80;;;;;;;4.34;63.74;95145.38;5008587;28;20224;-61
2022/01/04 05:05:04;;;;;;;61.45;33.42;;;;;;;4.00;64.10;95140.59;5013851;28;20245;-61
2022/01/04 05:07:31;;;;;;;57.92;32.75;;;;;;;3.98;64.69;95142.59;5010301;28;20185;-61
2022/01/04 05:10:05;;;;;;;59.38;33.58;;;;;;;4.05;64.02;95138.97;5007406;28;20202;-61
2022/01/04 05:12:32;;;;;;;61.17;33.13;;;;;;;3.91;64.39;95152.22;4989585;28;20261;-61
2022/01/04 05:14:59;;;;;;;61.05;34.58;;;;;;;4.08;64.29;95145.53;4996767;28;20197;-61
2022/01/04 05:17:26;;;;;;;55.97;32.20;;;;;;;4.02;64.36;95144.59;5028691;28;20182;-61
2022/01/04 05:19:53;;;;;;;61.33;37.20;;;;;;;4.00;64.38;95140.59;5022175;28;20206;-60
2022/01/04 05:22:20;;;;;;;65.38;35.47;;;;;;;4.13;63.25;95120.59;5008443;28;20202;-61
2022/01/04 05:24:47;;;;;;;59.45;35.65;;;;;;;4.09;63.63;95136.75;5008348;28;20201;-60
2022/01/04 05:27:15;;;;;;;55.65;33.22;;;;;;;3.77;65.14;95145.53;5008656;28;20693;-64
2022/01/04 05:29:42;;;;;;;58.90;33.58;;;;;;;3.94;64.56;95131.84;5008526;28;20221;-59
2022/01/04 05:32:09;;;;;;;60.05;34.88;;;;;;;4.15;64.24;95125.56;5007503;28;20665;-60
2022/01/04 05:34:36;;;;;;;54.78;30.38;;;;;;;3.82;65.32;95122.34;5008130;28;20206;-61
2022/01/04 05:37:03;;;;;;;37.20;21.23;;;;;;;3.95;65.24;95124.88;5008949;28;20660;-59
2022/01/04 05:39:30;;;;;;;44.55;23.55;;;;;;;3.97;65.78;95125.47;5011539;28;20193;-60
2022/01/04 05:41:57;;;;;;;54.25;30.48;;;;;;;4.18;65.44;95117.34;5011862;28;20649;-61
2022/01/04 05:44:24;;;;;;;55.88;28.52;;;;;;;4.09;64.97;95124.59;5011174;28;20855;-64
2022/01/04 05:46:51;;;;;;;58.47;30.95;;;;;;;4.08;64.74;95127.41;5010725;28;20241;-68
2022/01/04 05:49:18;;;;;;;53.83;30.77;;;;;;;4.08;65.30;95124.81;5010540;28;20244;-61
2022/01/04 05:51:45;;;;;;;188.52;96.25;;;;;;;4.27;65.60;95116.06;5010834;28;20202;-60
2022/01/04 05:54:13;;;;;;;136.13;82.78;;;;;;;4.28;64.91;95112.50;5010353;28;20202;-61
2022/01/04 05:56:41;;;;;;;44.00;24.85;;;;;;;4.11;64.32;95114.00;5010959;28;20201;-61
2022/01/04 05:59:08;;;;;;;44.55;24.88;;;;;;;4.02;64.72;95112.66;5011146;28;20194;-61
2022/01/04 06:01:35;;;;;;;49.05;24.98;;;;;;;3.64;65.80;95117.88;5012237;28;20278;-63
2022/01/04 06:04:02;;;;;;;45.28;23.42;;;;;;;3.36;67.04;95126.97;5011586;28;20233;-61
2022/01/04 06:06:29;;;;;;;40.80;23.17;;;;;;;3.71;66.61;95116.03;5011962;28;20209;-62
2022/01/04 06:08:57;;;;;;;45.47;25.30;;;;;;;4.05;65.43;95127.81;5011974;28;20217;-61
2022/01/04 06:12:01;;;;;;;42.97;23.77;;;;;;;4.21;64.81;95127.31;5012045;28;20252;-62
2022/01/04 06:17:04;;;;;;;42.83;24.55;;;;;;;4.43;64.03;95110.38;5012240;28;20208;-61
2022/01/04 06:19:31;;;;;;;89.30;48.38;;;;;;;4.60;63.50;95115.84;5011481;28;20213;-61
2022/01/04 06:21:59;;;;;;;72.75;39.67;;;;;;;4.52;63.46;95119.50;5011689;28;20260;-62
2022/01/04 06:24:26;;;;;;;55.05;29.90;;;;;;;4.29;63.92;95129.63;5011095;28;20689;-62
2022/01/04 06:26:53;;;;;;;52.97;29.55;;;;;;;4.25;64.31;95133.69;5012200;28;20209;-61
2022/01/04 06:29:22;;;;;;;53.47;32.78;;;;;;;4.36;63.88;95130.38;5011275;28;20581;-62
2022/01/04 06:31:49;;;;;;;65.55;39.30;;;;;;;4.15;64.24;95102.22;5011930;28;20205;-62
2022/01/04 06:34:16;;;;;;;77.10;46.65;;;;;;;4.36;64.26;95120.00;5010294;28;20206;-62
2022/01/04 06:36:43;;;;;;;94.50;54.90;;;;;;;4.47;64.17;95111.53;5012018;28;20205;-62
2022/01/04 06:39:10;;;;;;;127.30;71.85;;;;;;;4.51;63.75;95112.69;5012421;28;20205;-62
2022/01/04 06:41:37;;;;;;;158.30;94.38;;;;;;;4.57;63.18;95113.66;5011726;28;20187;-61
2022/01/04 06:44:04;;;;;;;158.23;92.70;;;;;;;4.63;63.13;95113.63;5010860;28;20226;-61
2022/01/04 06:46:32;;;;;;;153.00;91.78;;;;;;;4.50;63.02;95113.72;5011416;28;20202;-61
2022/01/04 06:49:02;;;;;;;155.65;90.35;;;;;;;4.45;63.17;95108.38;5010793;28;20218;-62
2022/01/04 06:51:29;;;;;;;156.65;90.65;;;;;;;4.22;63.70;95115.91;5010336;28;20571;-63
2022/01/04 06:53:55;;;;;;;154.43;92.68;;;;;;;4.30;63.75;95120.88;5011095;28;20700;-61
2022/01/04 06:56:23;;;;;;;141.65;86.50;;;;;;;4.43;63.54;95110.38;5011792;28;20228;-60
2022/01/04 06:58:50;;;;;;;131.73;80.88;;;;;;;4.52;63.39;95109.13;5011163;28;20689;-62
2022/01/04 07:01:17;;;;;;;133.05;82.00;;;;;;;4.76;62.68;95110.88;5011958;28;20216;-62
2022/01/04 07:03:44;;;;;;;137.63;81.90;;;;;;;4.60;63.19;95110.66;5010517;28;20744;-62
2022/01/04 07:06:11;;;;;;;130.07;79.10;;;;;;;4.67;63.10;95117.34;5011806;28;20190;-62
2022/01/04 07:08:38;;;;;;;132.00;78.60;;;;;;;4.54;62.85;95112.28;5011513;28;20190;-61
2022/01/04 07:11:05;;;;;;;125.38;76.35;;;;;;;4.41;63.02;95117.59;5011232;28;20202;-61
2022/01/04 07:13:32;;;;;;;129.55;77.85;;;;;;;4.61;63.15;95127.78;5010399;28;20214;-62
2022/01/04 07:15:59;;;;;;;116.10;73.38;;;;;;;4.58;63.55;95113.44;5011016;28;20210;-61
2022/01/04 07:18:26;;;;;;;123.22;75.47;;;;;;;4.81;63.47;95124.03;5011118;28;20202;-62
2022/01/04 07:20:54;;;;;;;125.97;77.93;;;;;;;5.07;62.87;95123.75;5011370;28;20679;-64
2022/01/04 07:23:22;;;;;;;128.13;76.05;;;;;;;5.02;62.51;95115.00;5010223;28;20772;-62
2022/01/04 07:25:49;;;;;;;121.20;73.13;;;;;;;5.06;63.13;95121.38;5011355;28;20201;-62
2022/01/04 07:28:16;;;;;;;115.90;71.72;;;;;;;5.09;62.73;95116.53;5012075;28;20240;-62
2022/01/04 07:30:44;;;;;;;115.97;72.38;;;;;;;5.33;62.58;95119.31;5013539;28;20190;-61
2022/01/04 07:33:11;;;;;;;108.90;67.50;;;;;;;5.25;62.88;95119.59;5010498;28;20210;-61
2022/01/04 07:35:38;;;;;;;117.80;69.45;;;;;;;5.37;63.13;95123.03;5010845;28;20202;-62
2022/01/04 07:38:05;;;;;;;109.40;68.80;;;;;;;5.30;63.11;95122.31;5009622;28;20693;-62
2022/01/04 07:40:32;;;;;;;115.80;70.30;;;;;;;5.30;63.40;95124.91;5011480;28;20236;-62
2022/01/04 07:43:00;;;;;;;118.05;70.22;;;;;;;5.59;63.11;95126.78;5010384;28;20208;-61
2022/01/04 07:45:31;;;;;;;104.07;66.38;;;;;;;5.81;62.21;95114.88;5010165;28;20300;-61
2022/01/04 07:47:58;;;;;;;110.50;67.20;;;;;;;5.90;62.54;95108.41;5009713;28;20295;-61
2022/01/04 07:50:26;;;;;;;103.50;65.63;;;;;;;5.79;62.35;95096.13;5010570;28;20201;-61
2022/01/04 07:52:53;;;;;;;95.50;59.10;;;;;;;6.05;61.78;95104.41;5010011;28;20201;-61
2022/01/04 07:55:20;;;;;;;93.43;54.83;;;;;;;6.07;61.57;95101.56;5010619;28;20192;-61
2022/01/04 07:57:47;;;;;;;97.03;58.90;;;;;;;6.07;61.54;95098.97;5009481;28;20186;-61
2022/01/04 08:00:15;;;;;;;114.60;70.97;;;;;;;6.03;61.47;95113.44;5010101;28;20665;-62
2022/01/04 08:02:43;;;;;;;131.52;82.60;;;;;;;6.27;61.03;95109.88;5008858;28;20263;-61
2022/01/04 08:05:11;;;;;;;155.70;104.70;;;;;;;6.39;60.51;95099.47;5010002;28;20221;-62
2022/01/04 08:07:38;;;;;;;179.13;111.43;;;;;;;6.44;59.99;95105.59;5009994;28;20248;-62
2022/01/04 08:10:07;;;;;;;181.63;116.40;;;;;;;6.50;59.96;95096.09;5010436;28;20206;-61
2022/01/04 08:12:35;;;;;;;176.80;112.32;;;;;;;6.69;59.53;95103.59;5010097;28;20228;-62
2022/01/04 08:15:04;;;;;;;176.27;115.00;;;;;;;6.84;58.76;95106.53;5009879;28;20245;-61
2022/01/04 08:17:31;;;;;;;173.00;110.80;;;;;;;7.05;58.78;95107.75;5009065;28;20237;-61
2022/01/04 08:19:59;;;;;;;160.20;106.13;;;;;;;7.17;58.43;95105.97;5009769;28;20204;-62
2022/01/04 08:22:32;;;;;;;154.80;101.83;;;;;;;7.33;57.73;95099.22;5009579;28;20448;-60
2022/01/04 08:25:01;;;;;;;127.03;82.10;;;;;;;7.24;58.80;95104.03;5009876;28;20510;-60
2022/01/04 08:27:28;;;;;;;112.13;71.15;;;;;;;7.61;57.72;95086.25;5009476;28;20656;-61
2022/01/04 08:29:57;;;;;;;106.83;67.57;;;;;;;8.04;56.68;95094.34;5009801;28;20205;-62
2022/01/04 08:32:25;;;;;;;101.47;63.03;;;;;;;8.21;55.80;95097.78;5010184;28;20809;-61
2022/01/04 08:34:52;;;;;;;97.97;63.77;;;;;;;7.83;57.22;95089.78;5009702;28;20429;-60
2022/01/04 08:37:19;;;;;;;96.85;60.92;;;;;;;7.92;57.88;95093.59;5009755;28;20515;-61
2022/01/04 08:39:46;;;;;;;84.80;54.93;;;;;;;8.01;57.10;95087.00;5009288;28;20575;-61
2022/01/04 08:42:13;;;;;;;82.13;52.53;;;;;;;8.04;57.43;95081.28;5009556;28;20436;-61
2022/01/04 08:44:40;;;;;;;80.33;50.47;;;;;;;8.17;56.97;95075.78;5009173;28;20911;-61
2022/01/04 08:47:09;;;;;;;80.73;51.80;;;;;;;8.24;56.75;95076.44;5008075;28;20484;-62
2022/01/04 08:49:36;;;;;;;83.93;55.37;;;;;;;8.18;56.70;95075.53;5008971;28;20441;-64
2022/01/04 08:52:06;;;;;;;84.90;54.73;;;;;;;8.46;56.77;95076.53;5008547;28;20983;-63
2022/01/04 08:54:34;;;;;;;82.53;55.00;;;;;;;8.44;57.07;95068.94;5009372;28;20950;-62
2022/01/04 08:57:03;;;;;;;83.23;54.83;;;;;;;8.70;56.52;95078.75;5009696;28;20441;-61
2022/01/04 08:59:32;;;;;;;85.37;54.33;;;;;;;8.98;55.64;95076.00;5009117;28;20519;-61
2022/01/04 09:02:00;;;;;;;89.00;53.33;;;;;;;8.65;55.95;95064.84;5009672;28;20878;-62
2022/01/04 09:04:28;;;;;;;76.30;53.43;;;;;;;9.07;55.05;95061.50;5009121;28;20596;-61
2022/01/04 09:06:56;;;;;;;72.00;48.43;;;;;;;9.36;54.46;95061.34;5009963;28;20468;-62
2022/01/04 09:09:23;;;;;;;75.33;48.43;;;;;;;9.25;54.72;95062.25;5009205;28;20459;-61
2022/01/04 09:11:51;;;;;;;74.43;47.40;;;;;;;9.53;53.58;95060.25;5009244;28;20441;-61
2022/01/04 09:19:31;;;;;;;65.63;44.00;;;;;;;9.80;52.13;95041.94;5008927;28;20452;-62
2022/01/04 09:21:58;;;;;;;59.73;37.13;;;;;;;9.10;51.49;95039.31;5009434;28;20448;-61
2022/01/04 09:24:25;;;;;;;64.27;38.63;;;;;;;9.49;51.71;95042.69;5008693;28;20472;-63
2022/01/04 09:26:52;;;;;;;60.57;41.33;;;;;;;9.93;51.46;95031.09;5009270;28;20445;-62
2022/01/04 09:29:19;;;;;;;69.37;44.20;;;;;;;10.48;50.81;95021.13;5008895;28;21068;-61
2022/01/04 09:31:48;;;;;;;65.50;40.27;;;;;;;9.27;50.99;95018.34;5009834;28;20444;-61
2022/01/04 09:34:16;;;;;;;59.17;38.47;;;;;;;9.95;50.20;95000.22;5008669;28;20452;-61
2022/01/04 09:36:43;;;;;;;60.70;40.87;;;;;;;9.94;50.82;95001.28;5010030;28;20452;-62
2022/01/04 09:39:18;;;;;;;59.90;40.00;;;;;;;10.04;51.34;94993.50;5009305;28;20452;-61
2022/01/04 09:41:45;;;;;;;59.63;38.50;;;;;;;10.66;49.57;94981.41;5009332;28;20440;-62
2022/01/04 09:44:13;;;;;;;62.47;40.20;;;;;;;11.37;48.63;94968.63;5008364;28;20852;-61
2022/01/04 09:46:42;;;;;;;56.97;36.70;;;;;;;11.71;48.38;94972.41;5008533;28;20541;-62
2022/01/04 09:49:10;;;;;;;51.20;34.00;;;;;;;12.01;46.67;94967.19;5008839;28;20548;-61
2022/01/04 09:51:39;;;;;;;48.87;32.77;;;;;;;11.87;46.44;94966.91;5009299;28;20448;-61
2022/01/04 09:54:07;;;;;;;49.17;33.17;;;;;;;11.20;47.40;94959.09;5008788;28;20429;-61
2022/01/04 09:56:34;;;;;;;51.77;33.33;;;;;;;11.40;46.63;94960.22;5008386;28;20560;-61
2022/01/04 09:59:02;;;;;;;45.17;31.97;;;;;;;11.48;47.47;94951.88;5009069;28;20797;-61
2022/01/04 10:01:39;;;;;;;45.63;30.63;;;;;;;11.86;46.35;94946.19;5007612;28;21041;-62
2022/01/04 10:04:18;;;;;;;43.40;27.63;;;;;;;11.31;46.14;94946.03;5008031;28;20484;-60
2022/01/04 10:07:04;;;;;;;41.47;30.40;;;;;;;11.75;46.06;94947.22;5008921;28;20445;-62
2022/01/04 10:09:36;;;;;;;48.37;31.33;;;;;;;11.56;46.34;94943.47;5008411;28;20830;-62
2022/01/04 10:12:06;;;;;;;48.53;30.73;;;;;;;11.81;45.94;94938.28;5008546;28;20444;-62
2022/01/04 10:14:48;;;;;;;49.43;33.07;;;;;;;11.95;45.89;94920.97;5007993;28;20452;-62
2022/01/04 10:17:21;;;;;;;42.20;30.50;;;;;;;11.90;45.90;94913.88;5008788;28;20878;-60
2022/01/04 10:19:54;;;;;;;47.50;29.90;;;;;;;12.15;45.10;94908.59;5008249;28;20444;-61
2022/01/04 10:22:34;;;;;;;42.77;29.00;;;;;;;12.50;45.08;94904.38;5008917;28;20464;-61
2022/01/04 10:25:05;;;;;;;47.47;28.40;;;;;;;12.34;44.74;94902.81;5009665;28;20491;-61
2022/01/04 10:27:44;;;;;;;43.57;27.77;;;;;;;12.53;44.65;94894.09;5011835;28;20449;-61
2022/01/04 10:30:11;;;;;;;42.33;28.27;;;;;;;12.70;44.58;94886.69;5012109;28;20440;-61
2022/01/04 10:32:55;;;;;;;40.93;27.07;;;;;;;12.33;44.35;94886.28;5011660;28;20433;-61
2022/01/04 10:35:31;;;;;;;42.10;26.33;;;;;;;12.28;45.67;94888.13;5011891;28;20532;-63
2022/01/04 10:38:09;;;;;;;40.97;25.93;;;;;;;12.65;45.11;94872.75;5011786;28;20571;-62
2022/01/04 10:40:38;;;;;;;43.50;26.53;;;;;;;12.79;44.92;94874.56;5012799;28;20454;-62
2022/01/04 10:43:13;;;;;;;42.57;24.87;;;;;;;12.34;45.30;94869.44;5010399;28;20452;-61
2022/01/04 10:45:45;;;;;;;33.63;23.03;;;;;;;12.40;44.70;94864.97;5011660;28;20483;-62
2022/01/04 10:48:20;;;;;;;37.30;24.03;;;;;;;12.63;45.54;94859.88;5011415;28;20534;-61
2022/01/04 10:50:55;;;;;;;33.40;21.03;;;;;;;12.64;45.53;94864.13;5011688;28;20800;-61
2022/01/04 10:53:28;;;;;;;33.40;20.20;;;;;;;12.88;44.47;94865.03;5011376;28;20539;-61
2022/01/04 10:55:59;;;;;;;29.03;19.87;;;;;;;13.28;44.43;94865.94;5011737;28;20445;-60
2022/01/04 10:58:37;;;;;;;29.57;18.57;;;;;;;12.93;44.19;94862.41;5010998;28;20449;-61
2022/01/04 11:01:22;;;;;;;28.73;19.17;;;;;;;12.78;45.34;94851.94;5010824;28;20459;-62
2022/01/04 11:03:53;;;;;;;29.47;19.13;;;;;;;12.53;45.24;94844.16;5010513;28;20475;-63
2022/01/04 11:06:29;;;;;;;28.10;20.87;;;;;;;13.06;45.04;94853.19;5011371;28;20459;-61
2022/01/04 11:09:11;;;;;;;29.17;20.10;;;;;;;13.08;44.79;94851.81;5010940;28;20444;-61
2022/01/04 11:11:43;;;;;;;29.57;19.77;;;;;;;12.60;45.70;94854.38;5011621;28;20520;-62
2022/01/04 11:14:12;;;;;;;27.13;20.13;;;;;;;12.67;45.75;94855.69;5009750;28;20460;-60
2022/01/04 11:16:43;;;;;;;32.23;20.33;;;;;;;12.63;45.14;94854.63;5010001;28;20421;-61
2022/01/04 11:19:11;;;;;;;26.83;19.10;;;;;;;12.83;45.97;94844.03;5010491;28;20532;-61
2022/01/04 11:21:48;;;;;;;29.47;19.00;;;;;;;13.00;45.25;94844.50;5011304;28;20571;-62
2022/01/04 11:24:19;;;;;;;27.23;18.00;;;;;;;12.83;45.12;94837.97;5012620;28;20475;-61
2022/01/04 11:27:02;;;;;;;27.87;17.83;;;;;;;12.91;44.87;94840.84;5012845;28;20534;-62
2022/01/04 11:29:37;;;;;;;26.63;18.10;;;;;;;13.16;44.50;94829.44;5011331;28;20427;-62
2022/01/04 11:32:12;;;;;;;31.07;19.00;;;;;;;13.23;45.25;94822.81;5012280;28;20495;-61
2022/01/04 11:35:21;;;;;;;25.80;17.83;;;;;;;13.28;44.37;94813.31;5008699;28;20444;-60
2022/01/04 11:37:59;;;;;;;28.00;18.13;;;;;;;12.95;44.34;94810.34;5010617;28;20449;-61
2022/01/04 11:40:52;;;;;;;25.57;19.03;;;;;;;13.08;44.40;94815.00;5009611;28;20440;-61
2022/01/04 11:43:34;;;;;;;31.37;19.27;;;;;;;13.26;45.77;94799.63;5010178;28;20487;-61